sensor_id;sensor_type;location;lat;lon;timestamp;temperature;humidity
8093;DHT22;4089;52.420;13.334;2023-05-19T00:02:02;10.60;99.90
8093;DHT22;4089;52.420;13.334;2023-05-19T00:04:31;10.60;99.90
8093;DHT22;4089;52.420;13.334;2023-05-19T00:06:59;10.60;99.90
8093;DHT22;4089;52.420;13.334;2023-05-19T00:09:27;10.50;99.90
8093;DHT22;4089;52.420;13.334;2023-05-19T00:11:54;10.50;99.90
8093;DHT22;4089;52.420;13.334;2023-05-19T00:14:22;10.50;99.90
8093;DHT22;4089;52.420;13.334;2023-05-19T00:16:49;10.50;99.90
8093;DHT22;4089;52.420;13.334;2023-05-19T00:19:16;10.40;99.90
8093;DHT22;4089;52.420;13.334;2023-05-19T00:21:44;10.40;99.90
8093;DHT22;4089;52.420;13.334;2023-05-19T00:24:11;10.40;99.90
8093;DHT22;4089;52.420;13.334;2023-05-19T00:26:38;10.40;99.90
8093;DHT22;4089;52.420;13.334;2023-05-19T00:29:05;10.30;99.90
8093;DHT22;4089;52.420;13.334;2023-05-19T00:31:32;10.30;99.90
8093;DHT22;4089;52.420;13.334;2023-05-19T00:34:02;10.30;99.90
8093;DHT22;4089;52.420;13.334;2023-05-19T00:36:28;10.30;99.90
8093;DHT22;4089;52.420;13.334;2023-05-19T00:38:56;10.20;99.90
8093;DHT22;4089;52.420;13.334;2023-05-19T00:41:23;10.20;99.90
8093;DHT22;4089;52.420;13.334;2023-05-19T00:43:50;10.10;99.90
8093;DHT22;4089;52.420;13.334;2023-05-19T00:46:18;10.10;99.90
8093;DHT22;4089;52.420;13.334;2023-05-19T00:48:45;10.10;99.90
8093;DHT22;4089;52.420;13.334;2023-05-19T00:51:12;10.10;99.90
8093;DHT22;4089;52.420;13.334;2023-05-19T00:53:40;10.00;99.90
8093;DHT22;4089;52.420;13.334;2023-05-19T00:56:07;10.00;99.90
8093;DHT22;4089;52.420;13.334;2023-05-19T00:58:35;10.00;99.90
8093;DHT22;4089;52.420;13.334;2023-05-19T01:01:02;9.90;99.90
8093;DHT22;4089;52.420;13.334;2023-05-19T01:03:31;9.90;99.90
8093;DHT22;4089;52.420;13.334;2023-05-19T01:06:01;9.90;99.90
8093;DHT22;4089;52.420;13.334;2023-05-19T01:08:36;9.90;99.90
8093;DHT22;4089;52.420;13.334;2023-05-19T01:11:05;9.80;99.90
8093;DHT22;4089;52.420;13.334;2023-05-19T01:13:33;9.80;99.90
8093;DHT22;4089;52.420;13.334;2023-05-19T01:16:36;9.80;99.90
8093;DHT22;4089;52.420;13.334;2023-05-19T01:22:13;9.70;99.90
8093;DHT22;4089;52.420;13.334;2023-05-19T01:30:39;9.70;99.90
8093;DHT22;4089;52.420;13.334;2023-05-19T01:33:12;9.60;99.90
8093;DHT22;4089;52.420;13.334;2023-05-19T01:35:42;9.60;99.90
8093;DHT22;4089;52.420;13.334;2023-05-19T01:38:10;9.60;99.90
8093;DHT22;4089;52.420;13.334;2023-05-19T01:40:39;9.60;99.90
8093;DHT22;4089;52.420;13.334;2023-05-19T01:43:07;9.70;99.90
8093;DHT22;4089;52.420;13.334;2023-05-19T01:45:35;9.70;99.90
8093;DHT22;4089;52.420;13.334;2023-05-19T01:48:03;9.70;99.90
8093;DHT22;4089;52.420;13.334;2023-05-19T01:50:31;9.70;99.90
8093;DHT22;4089;52.420;13.334;2023-05-19T01:52:59;9.70;99.90
8093;DHT22;4089;52.420;13.334;2023-05-19T01:55:27;9.70;99.90
8093;DHT22;4089;52.420;13.334;2023-05-19T01:58:17;9.70;99.90
8093;DHT22;4089;52.420;13.334;2023-05-19T02:03:41;9.60;99.90
8093;DHT22;4089;52.420;13.334;2023-05-19T02:09:21;9.60;99.90
8093;DHT22;4089;52.420;13.334;2023-05-19T02:11:57;9.50;99.90
8093;DHT22;4089;52.420;13.334;2023-05-19T02:14:34;9.50;99.90
8093;DHT22;4089;52.420;13.334;2023-05-19T02:17:03;9.40;99.90
8093;DHT22;4089;52.420;13.334;2023-05-19T02:19:32;9.40;99.90
8093;DHT22;4089;52.420;13.334;2023-05-19T02:21:59;9.40;99.90
8093;DHT22;4089;52.420;13.334;2023-05-19T02:24:26;9.40;99.90
8093;DHT22;4089;52.420;13.334;2023-05-19T02:26:53;9.40;99.90
8093;DHT22;4089;52.420;13.334;2023-05-19T02:29:20;9.40;99.90
8093;DHT22;4089;52.420;13.334;2023-05-19T02:31:47;9.30;99.90
8093;DHT22;4089;52.420;13.334;2023-05-19T02:34:14;9.30;99.90
8093;DHT22;4089;52.420;13.334;2023-05-19T02:36:41;9.30;99.90
8093;DHT22;4089;52.420;13.334;2023-05-19T02:39:09;9.30;99.90
8093;DHT22;4089;52.420;13.334;2023-05-19T02:41:39;9.30;99.90
8093;DHT22;4089;52.420;13.334;2023-05-19T02:44:06;9.30;99.90
8093;DHT22;4089;52.420;13.334;2023-05-19T02:46:33;9.30;99.90
8093;DHT22;4089;52.420;13.334;2023-05-19T02:49:00;9.20;99.90
8093;DHT22;4089;52.420;13.334;2023-05-19T02:51:27;9.20;99.90
8093;DHT22;4089;52.420;13.334;2023-05-19T02:53:54;9.30;99.90
8093;DHT22;4089;52.420;13.334;2023-05-19T02:56:20;9.20;99.90
8093;DHT22;4089;52.420;13.334;2023-05-19T02:58:47;9.30;99.90
8093;DHT22;4089;52.420;13.334;2023-05-19T03:01:14;9.30;99.90
8093;DHT22;4089;52.420;13.334;2023-05-19T03:03:42;9.30;99.90
8093;DHT22;4089;52.420;13.334;2023-05-19T03:06:09;9.30;99.90
8093;DHT22;4089;52.420;13.334;2023-05-19T03:08:35;9.40;99.90
8093;DHT22;4089;52.420;13.334;2023-05-19T03:11:03;9.40;99.90
8093;DHT22;4089;52.420;13.334;2023-05-19T03:13:29;9.50;99.90
8093;DHT22;4089;52.420;13.334;2023-05-19T03:15:57;9.60;99.90
8093;DHT22;4089;52.420;13.334;2023-05-19T03:18:27;9.60;99.90
8093;DHT22;4089;52.420;13.334;2023-05-19T03:20:54;9.60;99.90
8093;DHT22;4089;52.420;13.334;2023-05-19T03:23:21;9.60;99.90
8093;DHT22;4089;52.420;13.334;2023-05-19T03:25:47;9.60;99.90
8093;DHT22;4089;52.420;13.334;2023-05-19T03:28:14;9.60;99.90
8093;DHT22;4089;52.420;13.334;2023-05-19T03:30:42;9.50;99.90
8093;DHT22;4089;52.420;13.334;2023-05-19T03:33:08;9.60;99.90
8093;DHT22;4089;52.420;13.334;2023-05-19T03:35:36;9.60;99.90
8093;DHT22;4089;52.420;13.334;2023-05-19T03:38:02;9.60;99.90
8093;DHT22;4089;52.420;13.334;2023-05-19T03:40:29;9.60;99.90
8093;DHT22;4089;52.420;13.334;2023-05-19T03:42:56;9.60;99.90
8093;DHT22;4089;52.420;13.334;2023-05-19T03:45:23;9.70;99.90
8093;DHT22;4089;52.420;13.334;2023-05-19T03:47:50;9.70;99.90
8093;DHT22;4089;52.420;13.334;2023-05-19T03:50:17;9.70;99.90
8093;DHT22;4089;52.420;13.334;2023-05-19T03:52:44;9.70;99.90
8093;DHT22;4089;52.420;13.334;2023-05-19T03:55:11;9.80;99.90
8093;DHT22;4089;52.420;13.334;2023-05-19T03:57:40;9.80;99.90
8093;DHT22;4089;52.420;13.334;2023-05-19T04:00:07;9.80;99.90
8093;DHT22;4089;52.420;13.334;2023-05-19T04:02:37;9.90;99.90
8093;DHT22;4089;52.420;13.334;2023-05-19T04:05:04;9.90;99.90
8093;DHT22;4089;52.420;13.334;2023-05-19T04:07:31;10.00;99.90
8093;DHT22;4089;52.420;13.334;2023-05-19T04:09:58;10.00;99.90
8093;DHT22;4089;52.420;13.334;2023-05-19T04:12:24;10.10;99.90
8093;DHT22;4089;52.420;13.334;2023-05-19T04:14:51;10.10;99.90
8093;DHT22;4089;52.420;13.334;2023-05-19T04:17:18;10.20;99.90
8093;DHT22;4089;52.420;13.334;2023-05-19T04:19:45;10.20;99.90
8093;DHT22;4089;52.420;13.334;2023-05-19T04:22:12;10.20;99.90
8093;DHT22;4089;52.420;13.334;2023-05-19T04:24:38;10.30;99.90
8093;DHT22;4089;52.420;13.334;2023-05-19T04:27:06;10.30;99.90
8093;DHT22;4089;52.420;13.334;2023-05-19T04:29:37;10.30;99.90
8093;DHT22;4089;52.420;13.334;2023-05-19T04:32:06;10.30;99.90
8093;DHT22;4089;52.420;13.334;2023-05-19T04:34:34;10.30;99.90
8093;DHT22;4089;52.420;13.334;2023-05-19T04:37:01;10.40;99.90
8093;DHT22;4089;52.420;13.334;2023-05-19T04:39:28;10.40;99.90
8093;DHT22;4089;52.420;13.334;2023-05-19T04:41:54;10.40;99.90
8093;DHT22;4089;52.420;13.334;2023-05-19T04:44:22;10.50;99.90
8093;DHT22;4089;52.420;13.334;2023-05-19T04:46:48;10.50;99.90
8093;DHT22;4089;52.420;13.334;2023-05-19T04:49:20;10.60;99.90
8093;DHT22;4089;52.420;13.334;2023-05-19T04:51:46;10.60;99.90
8093;DHT22;4089;52.420;13.334;2023-05-19T04:56:54;10.70;99.90
8093;DHT22;4089;52.420;13.334;2023-05-19T04:59:21;10.70;99.90
8093;DHT22;4089;52.420;13.334;2023-05-19T05:01:48;10.70;99.90
8093;DHT22;4089;52.420;13.334;2023-05-19T05:04:15;10.70;99.90
8093;DHT22;4089;52.420;13.334;2023-05-19T05:06:42;10.70;99.90
8093;DHT22;4089;52.420;13.334;2023-05-19T05:09:14;10.70;99.90
8093;DHT22;4089;52.420;13.334;2023-05-19T05:11:41;10.80;99.90
8093;DHT22;4089;52.420;13.334;2023-05-19T05:14:08;10.80;99.90
8093;DHT22;4089;52.420;13.334;2023-05-19T05:16:36;10.80;99.90
8093;DHT22;4089;52.420;13.334;2023-05-19T05:19:03;10.90;99.90
8093;DHT22;4089;52.420;13.334;2023-05-19T05:21:30;10.90;99.90
8093;DHT22;4089;52.420;13.334;2023-05-19T05:23:57;11.00;99.90
8093;DHT22;4089;52.420;13.334;2023-05-19T05:26:29;11.00;99.90
8093;DHT22;4089;52.420;13.334;2023-05-19T05:28:56;11.10;99.90
8093;DHT22;4089;52.420;13.334;2023-05-19T05:31:22;11.10;99.90
8093;DHT22;4089;52.420;13.334;2023-05-19T05:33:49;11.10;99.90
8093;DHT22;4089;52.420;13.334;2023-05-19T05:36:16;11.20;99.90
8093;DHT22;4089;52.420;13.334;2023-05-19T05:38:43;11.20;99.90
8093;DHT22;4089;52.420;13.334;2023-05-19T05:41:10;11.20;99.90
8093;DHT22;4089;52.420;13.334;2023-05-19T05:43:36;11.30;99.90
8093;DHT22;4089;52.420;13.334;2023-05-19T05:46:03;11.30;99.90
8093;DHT22;4089;52.420;13.334;2023-05-19T05:48:30;11.40;99.90
8093;DHT22;4089;52.420;13.334;2023-05-19T05:50:58;11.50;99.90
8093;DHT22;4089;52.420;13.334;2023-05-19T05:53:29;11.60;99.90
8093;DHT22;4089;52.420;13.334;2023-05-19T05:55:58;11.60;99.90
8093;DHT22;4089;52.420;13.334;2023-05-19T05:58:25;11.70;99.90
8093;DHT22;4089;52.420;13.334;2023-05-19T06:00:51;11.60;99.90
8093;DHT22;4089;52.420;13.334;2023-05-19T06:03:20;11.60;99.90
8093;DHT22;4089;52.420;13.334;2023-05-19T06:05:50;11.70;99.90
8093;DHT22;4089;52.420;13.334;2023-05-19T06:08:17;11.90;99.90
8093;DHT22;4089;52.420;13.334;2023-05-19T06:10:43;12.00;99.90
8093;DHT22;4089;52.420;13.334;2023-05-19T06:13:13;12.10;99.90
8093;DHT22;4089;52.420;13.334;2023-05-19T06:15:43;12.20;99.90
8093;DHT22;4089;52.420;13.334;2023-05-19T06:18:10;12.30;99.90
8093;DHT22;4089;52.420;13.334;2023-05-19T06:20:36;12.30;99.90
8093;DHT22;4089;52.420;13.334;2023-05-19T06:23:03;12.30;99.90
8093;DHT22;4089;52.420;13.334;2023-05-19T06:25:30;12.40;99.90
8093;DHT22;4089;52.420;13.334;2023-05-19T06:27:57;12.60;99.90
8093;DHT22;4089;52.420;13.334;2023-05-19T06:30:24;12.70;99.90
8093;DHT22;4089;52.420;13.334;2023-05-19T06:32:51;12.90;99.90
8093;DHT22;4089;52.420;13.334;2023-05-19T06:35:18;12.90;99.90
8093;DHT22;4089;52.420;13.334;2023-05-19T06:37:45;12.90;99.90
8093;DHT22;4089;52.420;13.334;2023-05-19T06:40:12;13.10;99.90
8093;DHT22;4089;52.420;13.334;2023-05-19T06:42:39;13.30;99.90
8093;DHT22;4089;52.420;13.334;2023-05-19T06:45:06;13.50;99.90
8093;DHT22;4089;52.420;13.334;2023-05-19T06:47:33;13.50;99.90
8093;DHT22;4089;52.420;13.334;2023-05-19T06:50:00;13.60;99.90
8093;DHT22;4089;52.420;13.334;2023-05-19T06:52:26;13.70;99.90
8093;DHT22;4089;52.420;13.334;2023-05-19T06:54:53;13.80;99.90
8093;DHT22;4089;52.420;13.334;2023-05-19T06:57:20;13.90;99.90
8093;DHT22;4089;52.420;13.334;2023-05-19T06:59:47;14.00;99.90
8093;DHT22;4089;52.420;13.334;2023-05-19T07:02:14;14.00;99.90
8093;DHT22;4089;52.420;13.334;2023-05-19T07:04:40;14.00;99.90
8093;DHT22;4089;52.420;13.334;2023-05-19T07:07:08;14.10;99.90
8093;DHT22;4089;52.420;13.334;2023-05-19T07:09:35;14.30;99.90
8093;DHT22;4089;52.420;13.334;2023-05-19T07:12:02;14.60;99.90
8093;DHT22;4089;52.420;13.334;2023-05-19T07:14:29;14.80;99.90
8093;DHT22;4089;52.420;13.334;2023-05-19T07:16:56;14.90;99.90
8093;DHT22;4089;52.420;13.334;2023-05-19T07:19:22;15.00;99.90
8093;DHT22;4089;52.420;13.334;2023-05-19T07:21:49;15.00;99.90
8093;DHT22;4089;52.420;13.334;2023-05-19T07:24:16;15.10;99.90
8093;DHT22;4089;52.420;13.334;2023-05-19T07:26:43;15.20;99.90
8093;DHT22;4089;52.420;13.334;2023-05-19T07:29:10;15.40;99.90
8093;DHT22;4089;52.420;13.334;2023-05-19T07:31:37;15.40;99.90
8093;DHT22;4089;52.420;13.334;2023-05-19T07:34:04;15.40;99.90
8093;DHT22;4089;52.420;13.334;2023-05-19T07:36:31;15.60;99.90
8093;DHT22;4089;52.420;13.334;2023-05-19T07:38:58;15.70;99.90
8093;DHT22;4089;52.420;13.334;2023-05-19T07:41:25;15.80;99.90
8093;DHT22;4089;52.420;13.334;2023-05-19T07:43:52;15.80;99.90
8093;DHT22;4089;52.420;13.334;2023-05-19T07:46:18;16.00;99.90
8093;DHT22;4089;52.420;13.334;2023-05-19T07:48:46;16.20;99.90
8093;DHT22;4089;52.420;13.334;2023-05-19T07:51:12;16.30;99.90
8093;DHT22;4089;52.420;13.334;2023-05-19T07:53:39;16.50;99.90
8093;DHT22;4089;52.420;13.334;2023-05-19T07:56:06;16.60;99.90
8093;DHT22;4089;52.420;13.334;2023-05-19T07:58:33;16.80;99.90
8093;DHT22;4089;52.420;13.334;2023-05-19T08:01:00;16.90;99.90
8093;DHT22;4089;52.420;13.334;2023-05-19T08:03:27;17.00;99.80
8093;DHT22;4089;52.420;13.334;2023-05-19T08:05:55;17.30;99.90
8093;DHT22;4089;52.420;13.334;2023-05-19T08:08:21;17.50;99.70
8093;DHT22;4089;52.420;13.334;2023-05-19T08:10:48;17.50;98.90
8093;DHT22;4089;52.420;13.334;2023-05-19T08:13:15;17.50;98.90
8093;DHT22;4089;52.420;13.334;2023-05-19T08:15:42;17.60;98.60
8093;DHT22;4089;52.420;13.334;2023-05-19T08:18:09;17.50;97.60
8093;DHT22;4089;52.420;13.334;2023-05-19T08:20:36;17.50;98.00
8093;DHT22;4089;52.420;13.334;2023-05-19T08:23:03;17.60;97.80
8093;DHT22;4089;52.420;13.334;2023-05-19T08:25:30;17.70;98.10
8093;DHT22;4089;52.420;13.334;2023-05-19T08:27:57;17.70;98.10
8093;DHT22;4089;52.420;13.334;2023-05-19T08:30:23;17.70;97.30
8093;DHT22;4089;52.420;13.334;2023-05-19T08:32:50;17.60;97.60
8093;DHT22;4089;52.420;13.334;2023-05-19T08:35:17;17.90;98.30
8093;DHT22;4089;52.420;13.334;2023-05-19T08:37:44;18.10;97.80
8093;DHT22;4089;52.420;13.334;2023-05-19T08:40:16;18.20;96.80
8093;DHT22;4089;52.420;13.334;2023-05-19T08:42:46;18.20;95.40
8093;DHT22;4089;52.420;13.334;2023-05-19T08:45:13;18.40;96.80
8093;DHT22;4089;52.420;13.334;2023-05-19T08:47:45;18.60;95.70
8093;DHT22;4089;52.420;13.334;2023-05-19T08:50:16;18.40;95.50
8093;DHT22;4089;52.420;13.334;2023-05-19T08:52:57;18.50;94.50
8093;DHT22;4089;52.420;13.334;2023-05-19T08:58:03;19.00;94.60
8093;DHT22;4089;52.420;13.334;2023-05-19T09:00:30;19.20;93.80
8093;DHT22;4089;52.420;13.334;2023-05-19T09:02:59;19.40;93.50
8093;DHT22;4089;52.420;13.334;2023-05-19T09:05:44;19.30;92.70
8093;DHT22;4089;52.420;13.334;2023-05-19T09:08:12;19.00;90.70
8093;DHT22;4089;52.420;13.334;2023-05-19T09:10:39;18.80;92.40
8093;DHT22;4089;52.420;13.334;2023-05-19T09:13:06;19.10;91.70
8093;DHT22;4089;52.420;13.334;2023-05-19T09:15:33;19.20;91.20
8093;DHT22;4089;52.420;13.334;2023-05-19T09:18:10;19.20;91.70
8093;DHT22;4089;52.420;13.334;2023-05-19T09:20:42;19.20;91.30
8093;DHT22;4089;52.420;13.334;2023-05-19T09:23:13;19.20;91.70
8093;DHT22;4089;52.420;13.334;2023-05-19T09:25:48;18.90;90.90
8093;DHT22;4089;52.420;13.334;2023-05-19T09:28:29;19.00;90.40
8093;DHT22;4089;52.420;13.334;2023-05-19T09:31:07;18.80;89.70
8093;DHT22;4089;52.420;13.334;2023-05-19T09:33:36;18.50;88.10
8093;DHT22;4089;52.420;13.334;2023-05-19T09:36:04;18.50;87.90
8093;DHT22;4089;52.420;13.334;2023-05-19T09:38:32;18.30;86.90
8093;DHT22;4089;52.420;13.334;2023-05-19T09:40:59;18.30;87.10
8093;DHT22;4089;52.420;13.334;2023-05-19T09:43:30;18.50;87.10
8093;DHT22;4089;52.420;13.334;2023-05-19T09:46:06;18.50;86.20
8093;DHT22;4089;52.420;13.334;2023-05-19T09:48:34;18.50;86.10
8093;DHT22;4089;52.420;13.334;2023-05-19T09:51:03;18.20;84.30
8093;DHT22;4089;52.420;13.334;2023-05-19T09:53:33;18.10;83.00
8093;DHT22;4089;52.420;13.334;2023-05-19T09:56:01;18.10;85.00
8093;DHT22;4089;52.420;13.334;2023-05-19T09:58:32;18.30;87.90
8093;DHT22;4089;52.420;13.334;2023-05-19T10:01:03;18.50;85.70
8093;DHT22;4089;52.420;13.334;2023-05-19T10:03:30;18.70;83.40
8093;DHT22;4089;52.420;13.334;2023-05-19T10:06:05;18.80;85.50
8093;DHT22;4089;52.420;13.334;2023-05-19T10:08:33;19.00;84.60
8093;DHT22;4089;52.420;13.334;2023-05-19T10:11:00;19.20;81.50
8093;DHT22;4089;52.420;13.334;2023-05-19T10:13:28;19.40;85.50
8093;DHT22;4089;52.420;13.334;2023-05-19T10:15:57;19.40;83.10
8093;DHT22;4089;52.420;13.334;2023-05-19T10:18:26;19.20;81.60
8093;DHT22;4089;52.420;13.334;2023-05-19T10:20:56;19.10;83.00
8093;DHT22;4089;52.420;13.334;2023-05-19T10:23:24;19.20;82.10
8093;DHT22;4089;52.420;13.334;2023-05-19T10:25:55;19.20;80.70
8093;DHT22;4089;52.420;13.334;2023-05-19T10:28:29;18.90;80.60
8093;DHT22;4089;52.420;13.334;2023-05-19T10:30:59;18.70;80.00
8093;DHT22;4089;52.420;13.334;2023-05-19T10:39:21;19.00;80.90
8093;DHT22;4089;52.420;13.334;2023-05-19T10:42:03;18.80;81.40
8093;DHT22;4089;52.420;13.334;2023-05-19T10:47:24;19.00;78.60
8093;DHT22;4089;52.420;13.334;2023-05-19T10:49:52;18.80;80.00
8093;DHT22;4089;52.420;13.334;2023-05-19T10:52:21;19.00;78.00
8093;DHT22;4089;52.420;13.334;2023-05-19T10:54:48;19.10;79.80
8093;DHT22;4089;52.420;13.334;2023-05-19T10:57:17;19.40;79.80
8093;DHT22;4089;52.420;13.334;2023-05-19T10:59:45;19.40;75.70
8093;DHT22;4089;52.420;13.334;2023-05-19T11:02:41;19.60;79.90
8093;DHT22;4089;52.420;13.334;2023-05-19T11:05:13;19.80;77.00
8093;DHT22;4089;52.420;13.334;2023-05-19T11:07:42;19.60;73.80
8093;DHT22;4089;52.420;13.334;2023-05-19T11:10:10;19.50;75.00
8093;DHT22;4089;52.420;13.334;2023-05-19T11:12:41;19.70;76.70
8093;DHT22;4089;52.420;13.334;2023-05-19T11:15:24;19.70;75.70
8093;DHT22;4089;52.420;13.334;2023-05-19T11:17:52;19.20;74.90
8093;DHT22;4089;52.420;13.334;2023-05-19T11:20:24;19.00;74.90
8093;DHT22;4089;52.420;13.334;2023-05-19T11:23:05;19.20;77.10
8093;DHT22;4089;52.420;13.334;2023-05-19T11:25:46;19.20;73.50
8093;DHT22;4089;52.420;13.334;2023-05-19T11:28:22;19.00;73.70
8093;DHT22;4089;52.420;13.334;2023-05-19T11:30:54;19.00;73.60
8093;DHT22;4089;52.420;13.334;2023-05-19T11:33:23;18.80;74.40
8093;DHT22;4089;52.420;13.334;2023-05-19T11:35:56;18.70;73.60
8093;DHT22;4089;52.420;13.334;2023-05-19T11:38:27;18.80;74.80
8093;DHT22;4089;52.420;13.334;2023-05-19T11:40:55;19.20;74.60
8093;DHT22;4089;52.420;13.334;2023-05-19T11:43:23;19.40;74.40
8093;DHT22;4089;52.420;13.334;2023-05-19T11:45:52;19.40;71.70
8093;DHT22;4089;52.420;13.334;2023-05-19T11:48:22;19.30;70.80
8093;DHT22;4089;52.420;13.334;2023-05-19T11:50:50;19.20;70.30
8093;DHT22;4089;52.420;13.334;2023-05-19T11:53:18;19.10;72.60
8093;DHT22;4089;52.420;13.334;2023-05-19T11:55:47;19.40;72.30
8093;DHT22;4089;52.420;13.334;2023-05-19T11:58:15;19.40;73.10
8093;DHT22;4089;52.420;13.334;2023-05-19T12:00:43;19.30;71.20
8093;DHT22;4089;52.420;13.334;2023-05-19T12:03:13;19.50;73.20
8093;DHT22;4089;52.420;13.334;2023-05-19T12:05:44;19.30;71.70
8093;DHT22;4089;52.420;13.334;2023-05-19T12:08:13;19.30;75.60
8093;DHT22;4089;52.420;13.334;2023-05-19T12:10:40;19.40;73.50
8093;DHT22;4089;52.420;13.334;2023-05-19T12:13:07;19.40;72.60
8093;DHT22;4089;52.420;13.334;2023-05-19T12:15:35;19.50;76.40
8093;DHT22;4089;52.420;13.334;2023-05-19T12:18:03;19.80;76.80
8093;DHT22;4089;52.420;13.334;2023-05-19T12:20:30;19.90;70.10
8093;DHT22;4089;52.420;13.334;2023-05-19T12:22:59;19.70;69.80
8093;DHT22;4089;52.420;13.334;2023-05-19T12:25:27;19.40;69.50
8093;DHT22;4089;52.420;13.334;2023-05-19T12:27:58;19.30;71.60
8093;DHT22;4089;52.420;13.334;2023-05-19T12:30:29;19.10;71.60
8093;DHT22;4089;52.420;13.334;2023-05-19T12:32:57;19.10;72.30
8093;DHT22;4089;52.420;13.334;2023-05-19T12:35:28;19.00;70.40
8093;DHT22;4089;52.420;13.334;2023-05-19T12:37:55;19.10;70.10
8093;DHT22;4089;52.420;13.334;2023-05-19T12:40:23;19.10;71.50
8093;DHT22;4089;52.420;13.334;2023-05-19T12:42:55;19.20;72.60
8093;DHT22;4089;52.420;13.334;2023-05-19T12:45:24;19.30;70.60
8093;DHT22;4089;52.420;13.334;2023-05-19T12:47:53;19.40;71.90
8093;DHT22;4089;52.420;13.334;2023-05-19T12:50:20;19.40;72.20
8093;DHT22;4089;52.420;13.334;2023-05-19T12:52:49;19.60;71.00
8093;DHT22;4089;52.420;13.334;2023-05-19T12:55:18;20.00;71.80
8093;DHT22;4089;52.420;13.334;2023-05-19T12:57:50;20.50;69.20
8093;DHT22;4089;52.420;13.334;2023-05-19T13:00:23;20.90;68.60
8093;DHT22;4089;52.420;13.334;2023-05-19T13:05:22;20.40;70.40
8093;DHT22;4089;52.420;13.334;2023-05-19T13:07:56;20.30;72.70
8093;DHT22;4089;52.420;13.334;2023-05-19T13:10:24;19.90;69.90
8093;DHT22;4089;52.420;13.334;2023-05-19T13:12:55;19.50;70.00
8093;DHT22;4089;52.420;13.334;2023-05-19T13:15:23;19.20;68.70
8093;DHT22;4089;52.420;13.334;2023-05-19T13:17:52;19.00;70.50
8093;DHT22;4089;52.420;13.334;2023-05-19T13:20:20;18.90;70.80
8093;DHT22;4089;52.420;13.334;2023-05-19T13:22:47;19.20;72.70
8093;DHT22;4089;52.420;13.334;2023-05-19T13:25:15;19.60;72.40
8093;DHT22;4089;52.420;13.334;2023-05-19T13:27:43;19.90;72.00
8093;DHT22;4089;52.420;13.334;2023-05-19T13:30:11;20.30;71.50
8093;DHT22;4089;52.420;13.334;2023-05-19T13:32:38;20.20;68.60
8093;DHT22;4089;52.420;13.334;2023-05-19T13:35:05;19.90;68.80
8093;DHT22;4089;52.420;13.334;2023-05-19T13:37:32;19.60;68.50
8093;DHT22;4089;52.420;13.334;2023-05-19T13:40:01;19.40;67.70
8093;DHT22;4089;52.420;13.334;2023-05-19T13:42:27;19.30;70.00
8093;DHT22;4089;52.420;13.334;2023-05-19T13:44:55;19.30;68.50
8093;DHT22;4089;52.420;13.334;2023-05-19T13:47:22;19.60;69.60
8093;DHT22;4089;52.420;13.334;2023-05-19T13:49:50;19.60;68.90
8093;DHT22;4089;52.420;13.334;2023-05-19T13:52:17;19.60;67.60
8093;DHT22;4089;52.420;13.334;2023-05-19T13:54:45;19.70;66.90
8093;DHT22;4089;52.420;13.334;2023-05-19T13:57:12;19.80;65.80
8093;DHT22;4089;52.420;13.334;2023-05-19T13:59:38;20.30;67.00
8093;DHT22;4089;52.420;13.334;2023-05-19T14:02:23;20.90;64.30
8093;DHT22;4089;52.420;13.334;2023-05-19T14:04:50;21.20;63.80
8093;DHT22;4089;52.420;13.334;2023-05-19T14:07:17;21.80;65.70
8093;DHT22;4089;52.420;13.334;2023-05-19T14:09:43;22.00;63.80
8093;DHT22;4089;52.420;13.334;2023-05-19T14:12:11;21.80;62.80
8093;DHT22;4089;52.420;13.334;2023-05-19T14:14:39;21.50;59.70
8093;DHT22;4089;52.420;13.334;2023-05-19T14:17:06;21.30;60.90
8093;DHT22;4089;52.420;13.334;2023-05-19T14:19:33;21.50;61.60
8093;DHT22;4089;52.420;13.334;2023-05-19T14:21:59;21.10;60.30
8093;DHT22;4089;52.420;13.334;2023-05-19T14:24:26;21.20;61.20
8093;DHT22;4089;52.420;13.334;2023-05-19T14:26:53;21.50;61.00
8093;DHT22;4089;52.420;13.334;2023-05-19T14:29:20;21.50;61.80
8093;DHT22;4089;52.420;13.334;2023-05-19T14:31:47;21.60;62.80
8093;DHT22;4089;52.420;13.334;2023-05-19T14:34:14;21.70;62.60
8093;DHT22;4089;52.420;13.334;2023-05-19T14:36:47;21.60;60.50
8093;DHT22;4089;52.420;13.334;2023-05-19T14:39:14;21.10;59.80
8093;DHT22;4089;52.420;13.334;2023-05-19T14:41:41;21.00;61.60
8093;DHT22;4089;52.420;13.334;2023-05-19T14:44:08;20.90;61.70
8093;DHT22;4089;52.420;13.334;2023-05-19T14:46:35;21.00;61.50
8093;DHT22;4089;52.420;13.334;2023-05-19T14:49:02;20.80;60.20
8093;DHT22;4089;52.420;13.334;2023-05-19T14:51:29;20.30;60.50
8093;DHT22;4089;52.420;13.334;2023-05-19T14:53:57;20.20;62.60
8093;DHT22;4089;52.420;13.334;2023-05-19T14:56:23;19.80;62.80
8093;DHT22;4089;52.420;13.334;2023-05-19T14:58:50;20.00;64.10
8093;DHT22;4089;52.420;13.334;2023-05-19T15:01:17;20.40;62.90
8093;DHT22;4089;52.420;13.334;2023-05-19T15:03:44;20.40;61.90
8093;DHT22;4089;52.420;13.334;2023-05-19T15:06:11;20.90;62.80
8093;DHT22;4089;52.420;13.334;2023-05-19T15:08:38;21.20;59.80
8093;DHT22;4089;52.420;13.334;2023-05-19T15:11:06;21.10;59.40
8093;DHT22;4089;52.420;13.334;2023-05-19T15:13:33;20.80;60.80
8093;DHT22;4089;52.420;13.334;2023-05-19T15:16:00;20.60;61.40
8093;DHT22;4089;52.420;13.334;2023-05-19T15:18:42;20.40;62.20
8093;DHT22;4089;52.420;13.334;2023-05-19T15:21:09;20.60;62.60
8093;DHT22;4089;52.420;13.334;2023-05-19T15:23:36;20.50;61.60
8093;DHT22;4089;52.420;13.334;2023-05-19T15:26:03;20.30;62.20
8093;DHT22;4089;52.420;13.334;2023-05-19T15:28:30;20.20;63.00
8093;DHT22;4089;52.420;13.334;2023-05-19T15:30:57;19.90;62.70
8093;DHT22;4089;52.420;13.334;2023-05-19T15:33:24;19.70;64.00
8093;DHT22;4089;52.420;13.334;2023-05-19T15:35:51;19.70;64.40
8093;DHT22;4089;52.420;13.334;2023-05-19T15:38:18;19.60;63.60
8093;DHT22;4089;52.420;13.334;2023-05-19T15:40:45;19.60;63.80
8093;DHT22;4089;52.420;13.334;2023-05-19T15:43:12;19.40;64.00
8093;DHT22;4089;52.420;13.334;2023-05-19T15:45:39;19.30;64.00
8093;DHT22;4089;52.420;13.334;2023-05-19T15:48:06;19.30;66.50
8093;DHT22;4089;52.420;13.334;2023-05-19T15:50:34;19.10;64.70
8093;DHT22;4089;52.420;13.334;2023-05-19T15:53:01;19.10;64.00
8093;DHT22;4089;52.420;13.334;2023-05-19T15:55:28;19.00;63.10
8093;DHT22;4089;52.420;13.334;2023-05-19T15:57:55;18.90;64.20
8093;DHT22;4089;52.420;13.334;2023-05-19T16:00:22;19.00;64.20
8093;DHT22;4089;52.420;13.334;2023-05-19T16:02:49;19.00;63.30
8093;DHT22;4089;52.420;13.334;2023-05-19T16:05:16;19.00;64.20
8093;DHT22;4089;52.420;13.334;2023-05-19T16:07:43;19.00;64.90
8093;DHT22;4089;52.420;13.334;2023-05-19T16:10:10;19.00;66.40
8093;DHT22;4089;52.420;13.334;2023-05-19T16:12:37;18.80;65.60
8093;DHT22;4089;52.420;13.334;2023-05-19T16:15:04;18.70;65.40
8093;DHT22;4089;52.420;13.334;2023-05-19T16:17:31;18.70;65.50
8093;DHT22;4089;52.420;13.334;2023-05-19T16:19:58;18.60;65.80
8093;DHT22;4089;52.420;13.334;2023-05-19T16:22:25;18.50;66.10
8093;DHT22;4089;52.420;13.334;2023-05-19T16:24:52;18.50;65.80
8093;DHT22;4089;52.420;13.334;2023-05-19T16:27:19;18.50;66.80
8093;DHT22;4089;52.420;13.334;2023-05-19T16:29:46;18.70;67.40